Time;durP1;ratioP1;P1;durP2;ratioP2;P2;SDS_P1;SDS_P2;PMS_P1;PMS_P2;Temp;Humidity;BMP_temperature;BMP_pressure;BME280_temperature;BME280_humidity;BME280_pressure;Samples;Min_cycle;Max_cycle;Signal;HPM_P1;HPM_P2
2022/12/14 00:00:43;;;;;;;;;39.75;36.75;;;;;4.36;51.07;99545.06;2095766;28;45876;-65
2022/12/14 00:01:43;;;;;;;;;36.50;36.00;;;;;4.37;50.98;99546.81;2100669;28;46481;-65
2022/12/14 00:02:43;;;;;;;;;43.25;37.75;;;;;4.36;50.84;99545.06;2093747;28;46446;-63
2022/12/14 00:03:45;;;;;;;;;28.00;27.67;;;;;4.36;50.81;99545.06;2093714;28;46869;-62
2022/12/14 00:04:45;;;;;;;;;36.00;33.80;;;;;4.36;51.00;99537.19;2094084;28;46471;-65
2022/12/14 00:05:46;;;;;;;;;41.50;37.75;;;;;4.37;50.93;99532.81;2093532;28;46640;-63
2022/12/14 00:06:46;;;;;;;;;39.00;35.50;;;;;4.38;51.06;99532.78;2094898;28;46881;-65
2022/12/14 00:07:46;;;;;;;;;44.25;39.75;;;;;4.39;50.89;99533.66;2093168;28;46378;-64
2022/12/14 00:08:49;;;;;;;;;42.00;38.25;;;;;4.41;50.65;99531.84;2096478;28;46448;-64
2022/12/14 00:09:49;;;;;;;;;42.40;38.40;;;;;4.43;50.73;99530.06;2093557;28;46564;-64
2022/12/14 00:10:49;;;;;;;;;42.50;38.25;;;;;4.39;50.76;99521.38;2094358;28;46300;-63
2022/12/14 00:11:50;;;;;;;;;34.00;29.50;;;;;4.43;51.10;99530.06;2093878;28;46243;-63
2022/12/14 00:12:50;;;;;;;;;40.75;36.75;;;;;4.42;51.04;99537.06;2094552;28;46490;-64
2022/12/14 00:13:58;;;;;;;;;42.00;37.00;;;;;4.41;50.98;99534.47;2085499;28;46811;-64
2022/12/14 00:14:59;;;;;;;;;32.80;29.40;;;;;4.40;50.74;99525.72;2088748;28;46618;-65
2022/12/14 00:16:04;;;;;;;;;38.50;36.75;;;;;4.42;50.96;99530.97;2093802;28;46725;-65
2022/12/14 00:17:05;;;;;;;;;42.60;37.40;;;;;4.42;50.75;99523.09;2093826;28;45781;-64
2022/12/14 00:18:05;;;;;;;;;42.50;37.00;;;;;4.43;50.77;99530.06;2093910;28;46854;-65
2022/12/14 00:19:06;;;;;;;;;39.75;36.75;;;;;4.43;50.63;99527.44;2097026;28;46861;-65
2022/12/14 00:20:07;;;;;;;;;40.50;38.00;;;;;4.42;50.68;99528.34;2092174;28;46497;-65
2022/12/14 00:21:10;;;;;;;;;37.80;36.60;;;;;4.43;50.61;99535.31;2096389;28;46810;-64
2022/12/14 00:22:10;;;;;;;;;37.80;34.20;;;;;4.43;51.02;99532.69;2090599;28;46715;-64
2022/12/14 00:23:10;;;;;;;;;41.50;37.50;;;;;4.45;50.84;99536.19;2096439;28;46685;-63
2022/12/14 00:24:11;;;;;;;;;37.50;32.00;;;;;4.45;50.96;99536.19;2092376;28;46658;-64
2022/12/14 00:25:11;;;;;;;;;39.75;38.50;;;;;4.45;51.18;99541.44;2095797;28;46543;-65
2022/12/14 00:26:14;;;;;;;;;44.00;39.50;;;;;4.44;50.80;99532.66;2092335;28;46375;-66
2022/12/14 00:27:14;;;;;;;;;37.20;35.20;;;;;4.43;50.70;99530.94;2092917;28;46945;-64
2022/12/14 00:28:14;;;;;;;;;36.50;31.50;;;;;4.44;50.54;99535.28;2090534;28;46182;-65
2022/12/14 00:29:15;;;;;;;;;38.75;35.75;;;;;4.46;50.71;99534.44;2097136;28;46724;-64
2022/12/14 00:30:18;;;;;;;;;37.00;36.50;;;;;4.47;50.77;99530.91;2090704;28;46262;-65
2022/12/14 00:31:19;;;;;;;;;37.60;35.00;;;;;4.48;50.56;99530.00;2096654;28;46105;-64
2022/12/14 00:32:20;;;;;;;;;34.60;33.60;;;;;4.49;50.94;99526.50;2091050;28;46662;-64
2022/12/14 00:33:20;;;;;;;;;44.00;39.25;;;;;4.49;50.67;99524.72;2096212;28;45560;-65
2022/12/14 00:34:20;;;;;;;;;36.00;35.50;;;;;4.50;50.84;99530.84;2093841;28;46721;-66
2022/12/14 00:35:21;;;;;;;;;38.75;34.25;;;;;4.50;51.05;99518.59;2096876;28;45698;-65
2022/12/14 00:36:21;;;;;;;;;38.00;36.75;;;;;4.50;51.24;99521.22;2093039;28;45718;-65
2022/12/14 00:37:22;;;;;;;;;44.00;39.50;;;;;4.49;51.18;99519.47;2091994;28;46120;-65
2022/12/14 00:38:22;;;;;;;;;38.00;35.00;;;;;4.49;50.95;99518.59;2090786;28;46642;-66
2022/12/14 00:39:22;;;;;;;;;43.25;39.00;;;;;4.49;50.63;99519.47;2096640;28;46613;-64
2022/12/14 00:40:23;;;;;;;;;41.25;37.25;;;;;4.49;50.65;99514.22;2092156;28;46348;-65
2022/12/14 00:41:23;;;;;;;;;38.25;36.50;;;;;4.49;50.65;99510.72;2094778;28;46789;-65
2022/12/14 00:42:23;;;;;;;;;38.50;35.50;;;;;4.49;50.85;99514.22;2091938;28;46420;-65
2022/12/14 00:43:24;;;;;;;;;44.75;39.75;;;;;4.50;51.15;99515.09;2096284;28;46598;-64
2022/12/14 00:44:24;;;;;;;;;46.00;40.00;;;;;4.50;50.66;99512.47;2093030;28;46673;-64
2022/12/14 00:45:25;;;;;;;;;43.25;39.25;;;;;4.48;51.19;99514.25;2096683;28;46687;-66
2022/12/14 00:46:25;;;;;;;;;28.75;25.25;;;;;4.48;51.33;99511.63;2093342;28;47310;-64
2022/12/14 00:47:25;;;;;;;;;42.75;38.00;;;;;4.47;50.81;99507.25;2094647;28;46649;-65
2022/12/14 00:48:26;;;;;;;;;30.50;28.25;;;;;4.46;51.36;99509.03;2091205;28;47181;-61
2022/12/14 00:49:26;;;;;;;;;43.00;36.75;;;;;4.46;50.92;99509.03;2096574;28;46443;-62
2022/12/14 00:50:27;;;;;;;;;36.75;35.25;;;;;4.48;50.97;99511.63;2092922;28;46835;-63
2022/12/14 00:51:27;;;;;;;;;44.50;39.50;;;;;4.46;51.15;99509.03;2096501;28;46473;-64
2022/12/14 00:52:28;;;;;;;;;41.25;38.50;;;;;4.44;50.58;99501.13;2091330;28;46802;-65
2022/12/14 00:53:28;;;;;;;;;39.75;37.00;;;;;4.44;50.89;99500.28;2096092;28;46579;-62
2022/12/14 00:54:29;;;;;;;;;44.75;38.50;;;;;4.46;51.06;99497.66;2092425;28;46943;-64
2022/12/14 00:55:29;;;;;;;;;44.50;39.25;;;;;4.44;50.99;99501.13;2096670;28;46484;-65
2022/12/14 00:56:29;;;;;;;;;40.50;37.00;;;;;4.46;50.91;99503.78;2092454;28;46736;-65
2022/12/14 00:57:30;;;;;;;;;41.50;38.00;;;;;4.45;51.34;99502.03;2093420;28;46361;-63
2022/12/14 00:58:30;;;;;;;;;39.50;36.50;;;;;4.46;50.83;99505.53;2091156;28;46281;-64
2022/12/14 00:59:30;;;;;;;;;42.25;37.00;;;;;4.45;51.21;99499.41;2095758;28;46506;-63
2022/12/14 01:00:31;;;;;;;;;47.00;40.00;;;;;4.46;50.83;99501.16;2100605;28;46154;-63
2022/12/14 01:01:31;;;;;;;;;45.75;38.75;;;;;4.47;51.00;99504.63;2094002;28;45189;-64
2022/12/14 01:02:32;;;;;;;;;41.75;37.00;;;;;4.46;51.22;99497.66;2093428;28;46520;-63
2022/12/14 01:03:33;;;;;;;;;38.00;34.25;;;;;4.47;51.01;99502.88;2090980;28;46869;-63
2022/12/14 01:04:33;;;;;;;;;38.80;35.40;;;;;4.46;51.02;99498.53;2092242;28;46462;-63
2022/12/14 01:05:34;;;;;;;;;43.25;38.50;;;;;4.47;51.12;99499.38;2095048;28;46527;-63
2022/12/14 01:06:34;;;;;;;;;42.00;38.00;;;;;4.46;51.31;99497.66;2093625;28;46946;-63
2022/12/14 01:07:35;;;;;;;;;43.50;39.50;;;;;4.46;51.18;99495.03;2091079;28;46893;-63
2022/12/14 01:08:35;;;;;;;;;40.50;36.50;;;;;4.46;50.87;99495.91;2092611;28;46886;-63
2022/12/14 01:09:35;;;;;;;;;36.00;34.25;;;;;4.44;50.65;99498.53;2085685;28;46300;-63
2022/12/14 01:10:37;;;;;;;;;42.75;37.75;;;;;4.46;51.31;99502.91;2086824;28;47037;-63
2022/12/14 01:11:38;;;;;;;;;45.40;39.80;;;;;4.46;50.88;99505.53;2089137;28;46702;-63
2022/12/14 01:12:39;;;;;;;;;42.25;38.75;;;;;4.45;50.82;99509.91;2092899;28;46649;-63
2022/12/14 01:13:40;;;;;;;;;43.25;38.50;;;;;4.44;51.00;99511.66;2091887;28;46608;-64
2022/12/14 01:14:41;;;;;;;;;44.20;39.00;;;;;4.43;51.02;99514.31;2093200;28;46693;-65
2022/12/14 01:15:41;;;;;;;;;40.50;38.25;;;;;4.42;51.32;99518.69;2094852;28;46527;-64
2022/12/14 01:16:41;;;;;;;;;40.75;38.25;;;;;4.42;51.32;99517.81;2092769;28;46320;-65
2022/12/14 01:17:42;;;;;;;;;50.50;43.75;;;;;4.42;51.79;99520.44;2089342;28;46759;-66
2022/12/14 01:18:42;;;;;;;;;44.25;38.00;;;;;4.41;50.74;99523.97;2085713;28;46349;-59
2022/12/14 01:19:42;;;;;;;;;48.25;41.50;;;;;4.41;51.52;99521.34;2084260;28;45929;-63
2022/12/14 01:20:43;;;;;;;;;43.50;39.25;;;;;4.41;51.46;99524.84;2094543;28;46388;-65
2022/12/14 01:21:43;;;;;;;;;44.75;39.75;;;;;4.41;51.43;99530.09;2093952;28;46719;-64
2022/12/14 01:22:44;;;;;;;;;43.00;40.00;;;;;4.41;51.07;99530.09;2094273;28;46758;-62
2022/12/14 01:23:46;;;;;;;;;42.00;38.75;;;;;4.41;51.27;99532.72;2093923;28;46261;-64
2022/12/14 01:24:46;;;;;;;;;45.00;39.00;;;;;4.40;51.13;99536.25;2094524;28;47075;-65
2022/12/14 01:25:47;;;;;;;;;46.75;39.25;;;;;4.40;51.55;99540.63;2094400;28;45092;-66
2022/12/14 01:26:47;;;;;;;;;53.00;41.75;;;;;4.40;51.21;99543.25;2095337;28;46824;-65
2022/12/14 01:27:49;;;;;;;;;42.25;39.00;;;;;4.40;51.39;99544.13;2090510;28;46162;-65
2022/12/14 01:28:51;;;;;;;;;46.60;40.00;;;;;4.42;51.57;99547.59;2095449;28;45718;-65
2022/12/14 01:29:52;;;;;;;;;31.40;28.40;;;;;4.41;51.25;99551.09;2091063;28;46732;-64
2022/12/14 01:30:52;;;;;;;;;52.00;41.25;;;;;4.40;51.08;99548.50;2095000;28;46603;-65
2022/12/14 01:31:52;;;;;;;;;37.00;29.75;;;;;4.40;51.14;99544.13;2092454;28;46482;-64
2022/12/14 01:32:53;;;;;;;;;40.00;31.50;;;;;4.40;51.26;99551.13;2095492;28;46654;-64
2022/12/14 01:33:53;;;;;;;;;41.25;36.25;;;;;4.40;51.34;99548.50;2092740;28;46789;-64
2022/12/14 01:34:53;;;;;;;;;47.75;41.00;;;;;4.40;51.14;99543.25;2094593;28;46455;-65
2022/12/14 01:35:54;;;;;;;;;44.50;39.25;;;;;4.37;51.21;99543.31;2094353;28;46308;-64
2022/12/14 01:36:54;;;;;;;;;43.50;39.50;;;;;4.38;51.35;99545.03;2093879;28;45677;-64
2022/12/14 01:37:54;;;;;;;;;36.75;34.25;;;;;4.38;50.98;99543.28;2089977;28;46890;-65
2022/12/14 01:38:58;;;;;;;;;39.75;37.25;;;;;4.38;51.57;99540.66;2093556;28;46573;-64
2022/12/14 01:39:58;;;;;;;;;45.60;40.00;;;;;4.37;51.62;99540.69;2092781;28;46052;-66
2022/12/14 01:40:59;;;;;;;;;39.50;36.25;;;;;4.35;51.50;99534.59;2095734;28;46033;-63
2022/12/14 01:41:59;;;;;;;;;38.60;36.40;;;;;4.34;51.34;99548.63;2092786;28;46787;-64
2022/12/14 01:43:00;;;;;;;;;39.00;35.25;;;;;4.33;51.57;99549.50;2095435;28;47336;-65
2022/12/14 01:44:20;;;;;;;;;38.00;37.00;;;;;4.33;51.53;99544.25;2093466;28;46679;-64
2022/12/14 01:45:21;;;;;;;;;32.00;30.60;;;;;4.32;51.31;99542.50;2078946;28;46647;-65
2022/12/14 01:46:34;;;;;;;;;44.80;40.80;;;;;4.31;51.57;99536.38;2082985;28;46507;-63
2022/12/14 01:47:43;;;;;;;;;41.40;37.00;;;;;4.30;51.74;99537.28;2085225;28;46657;-64
2022/12/14 01:48:45;;;;;;;;;41.40;37.00;;;;;4.30;51.70;99544.28;2087774;28;46234;-64
2022/12/14 01:50:01;;;;;;;;;40.00;36.40;;;;;4.29;51.49;99550.44;2084142;28;46767;-64
2022/12/14 01:51:02;;;;;;;;;41.40;35.60;;;;;4.28;51.71;99552.19;2089186;28;46367;-66
2022/12/14 01:52:13;;;;;;;;;35.25;32.00;;;;;4.28;51.67;99556.56;2088080;28;46582;-65
2022/12/14 01:53:20;;;;;;;;;38.00;36.20;;;;;4.29;51.72;99555.69;2086954;28;46720;-65
2022/12/14 01:54:21;;;;;;;;;41.20;37.20;;;;;4.27;51.96;99550.44;2084288;28;45137;-66
2022/12/14 01:55:26;;;;;;;;;34.50;32.25;;;;;4.26;52.20;99545.22;2078154;28;46814;-66
2022/12/14 01:56:29;;;;;;;;;38.00;37.20;;;;;4.26;51.90;99550.47;2076538;28;46927;-66
2022/12/14 01:57:40;;;;;;;;;23.80;20.60;;;;;4.26;52.22;99547.84;2086652;28;46670;-62
2022/12/14 01:58:40;;;;;;;;;37.80;36.60;;;;;4.27;52.42;99549.59;2086466;28;47165;-65
2022/12/14 01:59:44;;;;;;;;;37.50;36.50;;;;;4.28;52.11;99549.56;2085681;28;46273;-64
2022/12/14 02:00:44;;;;;;;;;37.80;34.40;;;;;4.27;52.02;99549.59;2086106;28;46169;-64
2022/12/14 02:01:45;;;;;;;;;38.25;36.50;;;;;4.26;52.48;99543.47;2084586;28;46980;-65
2022/12/14 02:02:54;;;;;;;;;36.00;34.25;;;;;4.27;52.53;99536.47;2087201;28;46597;-66
2022/12/14 02:03:55;;;;;;;;;34.40;30.00;;;;;4.26;52.18;99532.09;2085049;28;46770;-65
2022/12/14 02:04:59;;;;;;;;;39.00;34.75;;;;;4.27;52.34;99533.84;2077450;28;46197;-66
2022/12/14 02:06:16;;;;;;;;;40.40;35.00;;;;;4.26;52.37;99539.97;2077094;28;46440;-65
2022/12/14 02:07:16;;;;;;;;;35.40;32.20;;;;;4.25;52.49;99536.47;2086259;28;46540;-62
2022/12/14 02:08:19;;;;;;;;;31.50;29.50;;;;;4.25;51.98;99546.13;2084146;28;46933;-65
2022/12/14 02:09:26;;;;;;;;;39.80;36.20;;;;;4.24;52.47;99545.25;2083591;28;45871;-64
2022/12/14 02:10:29;;;;;;;;;36.80;31.80;;;;;4.24;52.39;99550.50;2083457;28;46321;-64
2022/12/14 02:12:03;;;;;;;;;33.40;32.00;;;;;4.25;52.39;99554.00;2086228;28;46911;-66
2022/12/14 02:13:09;;;;;;;;;34.80;33.00;;;;;4.22;52.48;99547.03;2069614;28;46542;-64
2022/12/14 02:14:09;;;;;;;;;28.40;28.40;;;;;4.23;52.94;99540.03;2065442;28;46910;-66
2022/12/14 02:15:12;;;;;;;;;39.75;36.75;;;;;4.21;52.74;99544.44;2069803;28;46423;-65
2022/12/14 02:16:13;;;;;;;;;34.80;33.60;;;;;4.19;53.31;99533.94;2067572;28;46992;-65
2022/12/14 02:17:14;;;;;;;;;34.75;32.25;;;;;4.20;53.07;99532.22;2069728;28;46594;-65
2022/12/14 02:18:24;;;;;;;;;35.20;31.60;;;;;4.19;53.33;99526.06;2066604;28;46942;-65
2022/12/14 02:19:24;;;;;;;;;27.40;27.00;;;;;4.18;53.19;99515.56;2067864;28;47917;-64
2022/12/14 02:20:33;;;;;;;;;40.25;34.00;;;;;4.18;53.45;99516.44;2067982;28;46406;-65
2022/12/14 02:21:35;;;;;;;;;36.20;33.60;;;;;4.16;53.58;99528.72;2069178;28;46526;-66
2022/12/14 02:22:56;;;;;;;;;35.40;31.00;;;;;4.16;53.21;99514.75;2068559;28;47026;-64
2022/12/14 02:24:22;;;;;;;;;35.80;35.20;;;;;4.16;53.65;99506.88;2072468;28;45384;-64
2022/12/14 02:25:45;;;;;;;;;17.60;16.20;;;;;4.16;53.81;99504.25;2078306;28;46661;-64
2022/12/14 02:27:03;;;;;;;;;24.40;23.60;;;;;4.15;53.63;99500.75;2073795;28;46742;-64
2022/12/14 02:28:24;;;;;;;;;34.40;31.60;;;;;4.14;54.34;99484.13;2075441;28;49260;-63
2022/12/14 02:29:55;;;;;;;;;33.00;29.40;;;;;4.16;53.89;99485.84;2078241;28;46964;-64
2022/12/14 02:31:23;;;;;;;;;35.00;32.60;;;;;4.12;53.95;99485.91;2078568;28;46725;-65
2022/12/14 02:33:00;;;;;;;;;36.60;32.20;;;;;4.11;54.55;99483.31;2076208;28;46705;-64
2022/12/14 02:34:16;;;;;;;;;41.20;37.40;;;;;4.10;54.55;99466.69;2074187;28;46347;-64
2022/12/14 02:35:34;;;;;;;;;35.40;31.20;;;;;4.09;54.49;99454.47;2080131;28;45465;-65
2022/12/14 02:36:44;;;;;;;;;40.60;32.80;;;;;4.08;54.42;99473.72;2077816;28;46589;-63
2022/12/14 02:37:53;;;;;;;;;31.60;30.60;;;;;4.09;54.51;99469.34;2076140;28;46413;-65
2022/12/14 02:39:19;;;;;;;;;37.40;34.20;;;;;4.10;55.31;99465.81;2074401;28;46527;-63
2022/12/14 02:40:32;;;;;;;;;41.60;37.00;;;;;4.09;54.91;99459.72;2076340;28;46805;-64
2022/12/14 02:42:01;;;;;;;;;34.40;31.00;;;;;4.08;54.90;99457.97;2076001;28;46704;-64
2022/12/14 02:43:28;;;;;;;;;39.20;37.80;;;;;4.08;55.32;99462.38;2076742;28;45602;-64
2022/12/14 02:44:38;;;;;;;;;36.80;34.80;;;;;4.07;55.26;99473.75;2076365;28;46488;-65
2022/12/14 02:46:04;;;;;;;;;33.00;33.00;;;;;4.04;55.76;99477.28;2077641;28;46554;-64
2022/12/14 02:47:19;;;;;;;;;32.20;31.20;;;;;4.02;56.18;99471.19;2074409;28;45728;-64
2022/12/14 02:48:36;;;;;;;;;40.60;37.40;;;;;4.02;56.07;99470.31;2076586;28;46142;-65
2022/12/14 02:50:00;;;;;;;;;37.00;34.20;;;;;4.04;55.87;99465.91;2068953;28;47391;-64
2022/12/14 02:51:22;;;;;;;;;36.60;36.60;;;;;4.02;55.93;99462.44;2090390;28;46664;-63
2022/12/14 02:53:00;;;;;;;;;39.60;36.60;;;;;4.02;56.30;99465.06;2093149;28;46388;-64
2022/12/14 02:54:10;;;;;;;;;41.60;37.60;;;;;4.01;56.31;99465.97;2094620;28;46367;-64
2022/12/14 02:55:24;;;;;;;;;41.80;37.20;;;;;3.99;56.63;99452.00;2096669;28;46370;-64
2022/12/14 02:56:32;;;;;;;;;35.40;33.40;;;;;3.98;56.28;99445.88;2092175;28;46221;-65
2022/12/14 02:57:36;;;;;;;;;35.00;33.80;;;;;4.01;56.90;99437.09;2095062;28;46632;-63
2022/12/14 02:58:49;;;;;;;;;39.00;36.00;;;;;4.02;56.85;99441.44;2092874;28;46882;-64
2022/12/14 02:59:53;;;;;;;;;35.60;32.40;;;;;4.02;56.82;99433.56;2088910;28;46595;-64
2022/12/14 03:00:55;;;;;;;;;41.60;36.80;;;;;4.02;56.81;99431.81;2096241;28;47001;-64
2022/12/14 03:01:56;;;;;;;;;34.80;34.80;;;;;4.01;57.04;99430.06;2093540;28;46339;-65
2022/12/14 03:02:56;;;;;;;;;41.75;34.75;;;;;4.02;57.11;99428.31;2094487;28;46545;-65
2022/12/14 03:03:57;;;;;;;;;39.75;34.75;;;;;4.01;56.97;99429.22;2090562;28;46462;-65
2022/12/14 03:04:57;;;;;;;;;41.50;39.25;;;;;4.01;57.20;99424.81;2096235;28;46317;-63
2022/12/14 03:06:03;;;;;;;;;43.00;38.50;;;;;4.01;57.24;99421.34;2086623;28;46833;-64
2022/12/14 03:07:23;;;;;;;;;38.20;31.40;;;;;4.00;57.12;99422.22;2086146;28;47237;-66
2022/12/14 03:08:26;;;;;;;;;41.60;37.40;;;;;3.98;57.24;99421.41;2094495;28;46459;-65
2022/12/14 03:09:30;;;;;;;;;35.00;33.00;;;;;3.97;57.26;99425.78;2097381;28;46620;-64
2022/12/14 03:10:47;;;;;;;;;38.60;36.20;;;;;3.97;57.63;99427.53;2094664;28;50583;-65
2022/12/14 03:11:54;;;;;;;;;38.20;32.80;;;;;3.97;57.29;99425.78;2094308;28;46721;-64
2022/12/14 03:13:05;;;;;;;;;39.00;36.60;;;;;3.98;57.17;99424.88;2093957;28;46706;-65
2022/12/14 03:14:14;;;;;;;;;45.20;37.40;;;;;4.00;57.69;99424.84;2092673;28;46366;-63
2022/12/14 03:15:17;;;;;;;;;43.60;40.00;;;;;3.99;57.49;99428.38;2101308;28;46583;-65
2022/12/14 03:16:26;;;;;;;;;41.60;36.20;;;;;4.00;57.42;99430.09;2094278;27;46896;-65
2022/12/14 03:17:30;;;;;;;;;41.20;38.20;;;;;4.00;57.83;99430.09;2091429;28;46796;-62
2022/12/14 03:18:42;;;;;;;;;39.20;34.60;;;;;3.99;57.89;99431.88;2094314;28;46758;-66
2022/12/14 03:19:52;;;;;;;;;37.20;33.80;;;;;4.00;57.61;99430.97;2089611;28;46675;-64
2022/12/14 03:20:57;;;;;;;;;37.00;34.60;;;;;3.99;57.97;99426.63;2094494;28;46406;-65
2022/12/14 03:22:06;;;;;;;;;43.40;39.20;;;;;4.00;57.93;99427.47;2093219;28;46660;-65
2022/12/14 03:23:14;;;;;;;;;38.60;36.20;;;;;4.01;57.74;99434.47;2096601;28;46488;-65
2022/12/14 03:24:21;;;;;;;;;46.40;38.60;;;;;4.00;57.80;99427.47;2091712;28;46517;-65
2022/12/14 03:25:31;;;;;;;;;36.60;35.80;;;;;4.01;57.43;99431.84;2096966;28;46904;-65
2022/12/14 03:26:44;;;;;;;;;39.40;37.60;;;;;4.00;57.78;99432.72;2092996;28;46397;-64
2022/12/14 03:27:50;;;;;;;;;34.20;33.80;;;;;4.00;58.25;99445.84;2091928;28;46908;-64
2022/12/14 03:28:55;;;;;;;;;37.80;34.40;;;;;3.99;57.58;99446.75;2095999;28;46850;-65
2022/12/14 03:30:01;;;;;;;;;38.40;35.80;;;;;3.97;58.00;99446.78;2091117;28;46395;-65
2022/12/14 03:31:07;;;;;;;;;35.80;33.20;;;;;3.96;57.97;99437.16;2096606;28;46418;-65
2022/12/14 03:32:14;;;;;;;;;38.20;35.20;;;;;3.96;57.69;99434.53;2092907;28;46696;-64
2022/12/14 03:33:18;;;;;;;;;34.00;33.40;;;;;3.97;57.71;99432.78;2097497;28;46562;-65
2022/12/14 03:34:27;;;;;;;;;43.00;39.80;;;;;3.96;57.75;99426.66;2091875;28;46523;-65
2022/12/14 03:35:38;;;;;;;;;37.00;33.40;;;;;3.95;58.11;99430.19;2097219;28;46646;-65
2022/12/14 03:36:50;;;;;;;;;39.80;35.60;;;;;3.95;58.13;99426.69;2095337;28;47027;-65
2022/12/14 03:37:57;;;;;;;;;38.60;34.80;;;;;3.97;57.93;99433.66;2092075;28;46459;-64
2022/12/14 03:39:01;;;;;;;;;36.40;33.60;;;;;3.97;58.09;99431.03;2094305;28;46565;-66
2022/12/14 03:40:03;;;;;;;;;39.80;35.60;;;;;3.98;57.85;99427.50;2090707;28;46934;-63
2022/12/14 03:41:30;;;;;;;;;40.40;39.20;;;;;3.98;57.99;99426.66;2103446;27;46582;-66
2022/12/14 03:42:48;;;;;;;;;37.20;35.00;;;;;3.98;58.16;99421.41;2097490;27;48948;-65
2022/12/14 03:44:06;;;;;;;;;40.60;37.00;;;;;3.97;58.62;99425.78;2094909;28;46876;-63
2022/12/14 03:45:19;;;;;;;;;45.60;40.20;;;;;3.98;58.09;99424.03;2096482;28;46514;-64
2022/12/14 03:46:43;;;;;;;;;42.40;38.40;;;;;3.98;58.25;99417.00;2091833;28;46852;-63
2022/12/14 03:48:08;;;;;;;;;40.80;37.60;;;;;4.00;58.08;99428.34;2091980;28;46479;-65
2022/12/14 03:49:18;;;;;;;;;49.60;40.00;;;;;4.02;58.29;99430.94;2096619;28;46943;-64
2022/12/14 03:50:25;;;;;;;;;38.80;34.60;;;;;4.00;58.58;99428.34;2077042;28;46756;-63
2022/12/14 03:51:51;;;;;;;;;42.60;38.00;;;;;4.02;58.49;99428.31;2081179;28;46825;-65
2022/12/14 03:52:57;;;;;;;;;39.80;36.40;;;;;4.03;58.66;99415.16;2095203;28;46940;-63
2022/12/14 03:54:18;;;;;;;;;41.20;35.60;;;;;4.03;58.55;99411.69;2094812;28;46395;-63
2022/12/14 03:55:24;;;;;;;;;34.20;33.60;;;;;4.03;58.71;99412.53;2093068;28;46426;-64
2022/12/14 03:56:42;;;;;;;;;40.60;37.00;;;;;4.03;58.29;99407.28;2092594;28;46569;-64
2022/12/14 03:57:51;;;;;;;;;43.40;40.40;;;;;4.04;58.18;99403.78;2092876;28;45108;-64
2022/12/14 03:59:16;;;;;;;;;38.60;34.20;;;;;4.03;58.73;99394.16;2094014;28;46731;-65
2022/12/14 04:00:21;;;;;;;;;39.20;33.80;;;;;4.04;58.82;99400.28;2092610;28;46867;-65
2022/12/14 04:01:21;;;;;;;;;41.20;34.00;;;;;4.03;58.40;99402.03;2097012;28;46351;-64
2022/12/14 04:02:33;;;;;;;;;36.25;36.25;;;;;4.03;58.40;99403.81;2093327;28;46865;-64
2022/12/14 04:03:56;;;;;;;;;39.20;37.80;;;;;4.01;58.55;99398.56;2095157;28;45704;-65
2022/12/14 04:05:12;;;;;;;;;40.60;37.00;;;;;4.00;58.54;99399.47;2094069;28;46699;-65
2022/12/14 04:06:48;;;;;;;;;35.40;33.80;;;;;3.99;58.83;99399.50;2091841;28;46862;-65
2022/12/14 04:07:59;;;;;;;;;42.40;40.20;;;;;4.00;58.57;99399.47;2069345;28;47064;-65
2022/12/14 04:09:07;;;;;;;;;46.80;41.40;;;;;4.01;58.66;99405.59;2071110;28;46455;-65
2022/12/14 04:18:56;;;;;;;;;41.20;38.80;;;;;3.99;58.99;99383.75;2070452;28;47181;-65
2022/12/14 04:20:09;;;;;;;;;38.20;36.20;;;;;3.99;58.90;99378.50;2064679;28;46816;-64
2022/12/14 04:21:17;;;;;;;;;37.20;35.20;;;;;4.00;58.70;99377.59;2070657;28;46817;-66
2022/12/14 04:22:23;;;;;;;;;24.80;24.20;;;;;4.00;58.60;99377.59;2066724;28;46293;-64
2022/12/14 04:26:30;;;;;;;;;37.20;36.60;;;;;3.99;58.86;99383.75;2069406;28;46430;-63
2022/12/14 04:27:37;;;;;;;;;44.00;39.20;;;;;4.00;59.40;99381.09;2069911;28;46540;-64
2022/12/14 04:30:11;;;;;;;;;32.60;31.20;;;;;3.98;59.20;99375.00;2068871;28;46328;-63
2022/12/14 04:31:22;;;;;;;;;37.40;35.80;;;;;3.97;59.22;99375.91;2070462;28;46533;-65
2022/12/14 04:32:38;;;;;;;;;37.40;31.20;;;;;3.96;59.21;99363.69;2068711;28;46843;-65
2022/12/14 04:33:45;;;;;;;;;36.60;35.60;;;;;3.95;59.35;99364.56;2069206;28;46472;-64
2022/12/14 04:34:55;;;;;;;;;43.80;39.60;;;;;3.95;59.27;99364.56;2070106;28;46733;-65
2022/12/14 04:36:00;;;;;;;;;38.40;36.60;;;;;3.95;58.87;99361.09;2069191;28;45823;-65
2022/12/14 04:37:07;;;;;;;;;37.40;34.40;;;;;3.96;58.94;99373.31;2070173;28;47040;-64
2022/12/14 04:38:19;;;;;;;;;38.80;36.00;;;;;3.95;59.56;99372.44;2068600;28;46477;-67
2022/12/14 04:39:26;;;;;;;;;45.20;39.40;;;;;3.95;59.08;99369.81;2066948;28;46651;-64
2022/12/14 04:40:33;;;;;;;;;39.00;35.00;;;;;3.95;59.15;99380.31;2068981;28;46879;-64
2022/12/14 04:41:41;;;;;;;;;38.20;35.40;;;;;3.96;59.12;99386.44;2067029;28;46568;-64
2022/12/14 04:43:00;;;;;;;;;39.80;36.80;;;;;3.94;58.86;99378.59;2086351;28;45762;-66
2022/12/14 04:44:06;;;;;;;;;40.20;37.20;;;;;3.93;59.19;99383.84;2090213;28;46818;-64
2022/12/14 04:45:22;;;;;;;;;35.40;35.20;;;;;3.93;59.16;99394.34;2095712;28;45907;-67
2022/12/14 04:46:26;;;;;;;;;40.20;37.40;;;;;3.92;58.98;99395.22;2089628;28;45987;-64
2022/12/14 04:47:37;;;;;;;;;40.40;37.80;;;;;3.90;59.08;99400.50;2094336;28;46973;-65
2022/12/14 04:48:41;;;;;;;;;38.60;36.80;;;;;3.90;58.89;99397.00;2094157;28;46641;-64
2022/12/14 04:50:00;;;;;;;;;39.80;38.00;;;;;3.90;59.13;99403.13;2094465;28;46699;-64
2022/12/14 04:51:12;;;;;;;;;39.60;37.40;;;;;3.91;58.86;99404.84;2096040;28;46987;-65
2022/12/14 04:52:15;;;;;;;;;38.80;37.80;;;;;3.91;59.25;99404.00;2092330;28;47183;-64
2022/12/14 04:53:21;;;;;;;;;42.40;37.60;;;;;3.90;58.96;99397.88;2097104;28;46586;-64
2022/12/14 04:54:37;;;;;;;;;42.20;36.40;;;;;3.91;59.06;99398.75;2093730;28;46502;-64
2022/12/14 04:56:01;;;;;;;;;37.00;34.00;;;;;3.91;59.07;99398.75;2094157;28;46846;-64
2022/12/14 04:57:09;;;;;;;;;37.00;34.60;;;;;3.90;59.12;99399.63;2062534;28;46889;-64
2022/12/14 04:58:22;;;;;;;;;42.00;38.80;;;;;3.91;59.14;99396.13;2061679;28;46335;-65
2022/12/14 04:59:23;;;;;;;;;36.40;35.80;;;;;3.92;59.35;99396.09;2055560;28;46545;-64
2022/12/14 05:00:24;;;;;;;;;37.60;35.00;;;;;3.93;59.19;99397.81;2053291;28;46153;-65
2022/12/14 05:01:34;;;;;;;;;43.25;36.75;;;;;3.95;58.98;99403.06;2062842;28;46446;-64
2022/12/14 05:03:12;;;;;;;;;37.40;36.80;;;;;3.97;59.42;99411.78;2060926;28;47097;-64
2022/12/14 05:04:32;;;;;;;;;43.20;36.80;;;;;3.97;58.85;99407.41;2061897;28;45474;-66
2022/12/14 05:05:46;;;;;;;;;37.20;36.60;;;;;3.98;59.34;99409.13;2059344;28;46746;-64
2022/12/14 05:07:18;;;;;;;;;41.60;37.20;;;;;3.97;58.93;99412.66;2061710;28;46381;-64
2022/12/14 05:08:33;;;;;;;;;39.80;33.80;;;;;3.98;59.49;99418.78;2058762;28;46289;-65
2022/12/14 05:10:05;;;;;;;;;41.80;38.60;;;;;3.99;58.84;99407.38;2061412;28;46129;-64
2022/12/14 05:11:20;;;;;;;;;32.80;29.00;;;;;3.98;59.17;99408.28;2062614;28;46468;-65
2022/12/14 05:12:35;;;;;;;;;30.20;30.20;;;;;3.99;59.44;99404.75;2058625;28;46483;-64
2022/12/14 05:13:43;;;;;;;;;36.00;33.20;;;;;3.99;59.42;99407.38;2061455;28;46563;-64
2022/12/14 05:14:51;;;;;;;;;34.80;33.20;;;;;3.99;59.31;99405.63;2061625;28;46357;-65
2022/12/14 05:15:55;;;;;;;;;37.60;32.40;;;;;3.99;59.30;99404.75;2055862;28;46465;-65
2022/12/14 05:16:57;;;;;;;;;44.00;37.80;;;;;3.99;59.51;99402.13;2061487;28;46381;-65
2022/12/14 05:18:03;;;;;;;;;37.00;36.40;;;;;3.99;59.28;99394.25;2061797;28;46709;-65
2022/12/14 05:19:08;;;;;;;;;39.00;32.20;;;;;3.98;59.09;99389.91;2061281;28;46504;-65
2022/12/14 05:20:14;;;;;;;;;37.20;34.20;;;;;3.97;59.08;99378.53;2061410;28;46402;-66
2022/12/14 05:22:37;;;;;;;;;39.40;34.60;;;;;4.01;59.28;99379.34;2062247;28;46779;-65
2022/12/14 05:23:37;;;;;;;;;46.00;40.60;;;;;4.00;59.32;99375.84;2060629;28;47011;-65
2022/12/14 05:24:38;;;;;;;;;37.50;35.25;;;;;4.02;59.24;99378.44;2062424;28;46631;-63
2022/12/14 05:25:38;;;;;;;;;43.25;39.50;;;;;4.01;58.81;99380.22;2061247;28;46616;-65
2022/12/14 05:26:39;;;;;;;;;47.75;41.75;;;;;4.02;59.07;99381.06;2061569;28;46038;-64